MST,Max TemperatureF,Mean TemperatureF,Min TemperatureF,Max Dew PointF,MeanDew PointF,Min DewpointF,Max Humidity, Mean Humidity, Min Humidity, Max Sea Level PressureIn, Mean Sea Level PressureIn, Min Sea Level PressureIn, Max VisibilityMiles, Mean VisibilityMiles, Min VisibilityMiles, Max Wind SpeedMPH, Mean Wind SpeedMPH, Max Gust SpeedMPH,PrecipitationIn, CloudCover, Events, WindDirDegrees
2012-12-1,70,50,30,24,19,15,58,34,14,30.21,30.16,30.11,10,10,10,18,5,25,0.00,0,,312
2012-12-2,64,46,29,23,17,12,61,35,16,30.21,30.13,30.04,10,10,7,13,5,,0.00,0,,258
2012-12-3,65,50,36,32,24,11,59,36,26,30.25,30.12,30.05,10,10,10,23,8,34,0.00,0,,300
2012-12-4,56,44,31,32,27,19,87,55,30,30.46,30.36,30.26,10,10,7,12,5,,0.00,0,,13
2012-12-5,62,46,30,23,20,17,64,40,22,30.34,30.21,30.06,10,10,10,9,3,,0.00,0,,206
2012-12-6,64,46,28,24,18,12,58,35,18,30.06,29.98,29.90,10,10,10,10,3,,0.00,1,,268
2012-12-7,64,50,36,30,25,20,62,41,23,30.00,29.95,29.88,10,10,10,16,4,21,0.00,1,,317
2012-12-8,64,45,26,28,20,11,73,42,19,30.00,29.93,29.84,10,10,10,18,6,28,0.00,0,,277
2012-12-9,59,39,19,24,14,-8,59,36,18,30.23,30.00,29.83,10,10,7,29,13,48,0.00,2,,278
2012-12-10,40,24,9,1,-5,-10,42,28,17,30.20,30.11,30.00,10,10,10,13,6,21,0.00,0,,13
2012-12-11,46,31,16,12,5,-3,56,35,22,30.15,30.09,30.04,10,10,10,12,4,17,0.00,0,,347
2012-12-12,49,31,13,10,5,-3,59,36,19,30.17,30.11,30.05,10,10,10,9,2,,0.00,0,,351
2012-12-13,55,36,16,19,9,0,49,37,21,30.16,30.07,29.94,10,10,10,10,4,,0.00,0,,239
2012-12-14,49,42,32,41,30,17,95,69,39,30.04,29.84,29.73,10,10,5,25,8,31,0.02,6,Rain,213
2012-12-15,48,39,30,34,28,24,94,66,39,30.02,29.93,29.85,10,10,3,17,8,23,0.01,7,Rain-Snow,205
2012-12-16,44,35,25,34,28,21,97,77,48,30.09,29.98,29.91,10,10,10,26,6,36,0.00,5,,318
2012-12-17,46,32,18,27,22,16,92,73,43,30.12,30.06,29.98,10,10,10,9,5,,0.00,0,,9
2012-12-18,47,33,19,30,26,18,96,74,47,30.00,29.88,29.70,10,10,10,8,4,,0.00,0,,338
2012-12-19,45,32,17,37,19,6,89,53,29,30.32,29.87,29.57,10,10,7,43,15,58,0.00,2,Rain,268
2012-12-20,38,24,11,9,4,-4,78,48,17,30.52,30.43,30.33,10,10,7,10,6,,0.00,0,,352
2012-12-21,43,26,9,9,5,2,81,47,19,30.43,30.33,30.23,10,10,10,8,4,,0.00,0,,342
2012-12-22,47,32,17,10,6,3,58,40,19,30.28,30.20,30.12,10,10,10,8,4,,0.00,0,,307
2012-12-23,52,34,15,20,11,5,73,49,26,30.19,30.12,30.05,10,10,10,9,4,,0.00,0,,8
2012-12-24,57,38,18,33,20,10,79,51,25,30.04,29.87,29.70,10,10,10,38,8,47,0.00,3,,274
2012-12-25,42,33,24,23,16,12,75,50,32,30.09,30.00,29.76,10,10,10,13,6,,0.00,1,,359
2012-12-26,43,30,18,18,16,11,75,55,34,30.07,29.91,29.75,10,10,10,22,7,26,0.00,1,,211
2012-12-27,41,32,20,20,17,12,71,53,34,29.90,29.81,29.74,10,10,10,18,7,25,0.00,2,,282
2012-12-28,42,28,15,20,14,8,86,58,30,30.24,30.05,29.90,10,10,10,16,6,17,0.00,1,,334
2012-12-29,39,24,8,13,9,5,87,55,29,30.32,30.22,30.11,10,10,10,10,5,,0.00,0,,345
2012-12-30,41,30,19,28,10,4,77,47,31,30.11,29.97,29.83,10,10,10,17,4,23,0.00,1,,349
2012-12-31,43,35,26,32,21,12,100,63,31,30.08,29.93,29.81,10,10,2,22,10,31,0.00,4,Snow,231